Weather observations for the past three days for
Warrenton-Fauquier Airport
Metric (Imperial)
Date Time (edt) Wind (kph) Vis. (km) Weather Sky Cond. Temperature (ºC) Relative Humidity Wind Chill (°C) Heat Index (°C) Pressure Precipitation (cm)
Air Dwpt 6 hour altimeter (cm) sea level (mb) 1 hr 3 hr 6 hr
Max. Min.
06 02:15 Calm 0.00 Overcast OVC001 18.5 17 91% 75.97 0.0
06 01:55 Calm 0.00 Overcast OVC001 18 16.5 22.3 18 91% 75.97 0.0
06 01:35 Calm 0.00 Overcast OVC001 18.9 17.4 91% 76 0.0
06 01:15 Calm 0.00 Mostly Cloudy BKN001 19.2 17.7 91% 76 0.0
06 00:55 Calm 0.00 NULL NULL 19.5 18 91% 76 0.0
06 00:35 Calm 0.00 NULL NULL 20.4 18.9 91% 76 0.0
06 00:15 NE 6 0.00 NULL NULL 20.4 18.9 91% 76 0.0
05 23:55 Calm 0.00 Mostly Cloudy BKN001 20 18.5 91% 76.02 0.0
05 23:35 Calm 0.00 Mostly Cloudy BKN001 19.8 18.3 91% 76 0.0
05 23:15 Calm 0.00 NULL NULL 20.2 18.7 91% 76 0.0
05 22:55 Calm 0.00 NULL NULL 20.4 18.9 91% 76 0.0
05 22:35 Calm 0.00 Mostly Cloudy BKN001 20 18.5 91% 76 0.0
05 22:15 Calm 0.00 NULL NULL 20.3 18.8 91% 76 0.0
05 21:55 Calm 0.00 Mostly Cloudy BKN002 19.8 18.3 91% 75.97 0.0
05 21:35 Calm 0.00 Mostly Cloudy BKN001 20.4 18.9 91% 75.95 0.0
05 21:15 Calm 0.00 Overcast OVC001 20.2 18.7 91% 75.95 0.0
05 20:55 Calm 0.00 Mostly Cloudy BKN001 20.7 19.2 91% 75.92 0.0
05 20:35 Calm 0.00 NULL NULL 21.2 19.7 91% 75.9 0.0
05 20:15 Calm 0.00 NULL NULL 22 20.4 91% 75.9 0.0
05 19:15 Calm 0.00 NULL NULL 23 21.5 91% 75.9 0.0
05 18:55 Calm 8.05 Fog/Mist CLR 23.1 21.6 91% 75.9 0.0 0.33
05 18:35 Calm 11.27 Partly Cloudy SCT006 SCT020 SCT027 23 21.5 91% 75.87 0.0 0.33
05 18:15 Calm 2.01 Heavy Rain SCT008 BKN018 OVC036 23 21.5 91% 75.87 0.0 0.33
05 17:55 N 7 3.22 Heavy Rain SCT012 BKN016 BKN022 24.3 21.1 82% 25 75.9 0.0 0.38
05 17:35 Calm 16.09 Fair CLR 26.7 20.6 69% 28 75.84 0.0
05 17:15 Calm 16.09 Fair CLR 26.7 20.6 69% 28 75.84 0.0
05 16:55 Calm 16.09 Fair CLR 27.2 19.1 61% 28 75.82 0.0
05 16:35 Calm 16.09 Fair CLR 27.2 18.8 60% 28 75.82 0.0
05 16:15 Calm 16.09 Fair CLR 27.4 18.3 58% 28 75.82 0.0
05 15:35 NE 7 16.09 Fair CLR 27.7 19.4 61% 29 75.84 0.0
05 13:55 NE 11 16.09 Fair CLR 26.5 21.8 27 21.9 75% 28 75.87 0.0 0.13
05 13:35 NE 6 16.09 Fair CLR 25.4 23 87% 27 75.9 0.0
05 13:15 Calm 16.09 Fair CLR 24.7 22 85% 25 75.92 0.0
05 12:55 Calm 16.09 Light Rain SCT033 SCT041 23.8 22.2 91% 75.92 0.0 0.13
05 12:35 SW 6 6.44 Thunderstorm Rain in Vicinity SCT034 OVC044 23.6 22 91% 76 0.0 0.1
05 12:15 SW 7 11.27 Thunderstorm Rain SCT018 SCT030 BKN048 23.9 22.3 91% 23 76.02 0.0
05 11:55 NW 6 16.09 Thunderstorm Light Rain in Vicinity SCT018 25.3 20.4 74% 26 76.02 0.0
05 11:35 N 9 16.09 Fair CLR 25.6 20.1 72% 27 76 0.0
05 11:15 N 9 16.09 Fair CLR 26.1 20.1 70% 27 76 0.0
05 10:55 NW 9 16.09 Fair CLR 26.3 20.2 69% 28 76.02 0.0
05 10:35 Calm 16.09 Fair CLR 26.4 20.1 68% 28 76 0.0
05 10:15 N 6 16.09 Fair CLR 25.8 21.2 76% 27 76 0.0
05 09:55 Calm 16.09 Fair CLR 25.1 21.2 79% 26 75.97 0.0
05 09:35 N 6 16.09 Fair CLR 24.3 20.9 81% 25 75.95 0.0
05 09:15 NE 6 16.09 Fair CLR 23.8 21.1 85% 75.95 0.0
05 08:55 NE 6 16.09 Fair CLR 23.5 21.4 88% 75.95 0.0
05 07:35 E 7 16.09 Fair CLR 20.8 19.3 91% 75.92 0.0
05 07:15 E 6 3.22 Fog/Mist BKN002 19.3 17.8 91% 75.92 0.0
05 06:55 Calm 3.22 Fog/Mist BKN002 18.5 17 91% 75.9 0.0
05 06:35 Calm 1.61 Fog/Mist OVC002 18.7 17.2 91% 75.87 0.0
05 06:15 Calm 0.80 Fog OVC002 18.5 17 91% 75.87 0.0
05 05:55 Calm 0.80 Fog OVC002 18.8 17.3 91% 75.84 0.0
05 05:35 Calm 0.40 Fog OVC002 18.6 17.1 91% 75.84 0.0
05 05:15 Calm 0.80 Fog OVC002 18.9 17.4 91% 75.84 0.0
05 04:55 Calm 0.80 Fog OVC002 19.2 17.7 91% 75.84 0.0
05 04:35 Calm 1.21 Fog/Mist VV005 19.7 18.2 91% 75.84 0.0
05 04:15 Calm 6.44 Fog/Mist BKN002 20 18.5 91% 75.84 0.0
05 03:55 Calm 0.40 Fog OVC002 19.4 17.9 91% 75.9 0.0
05 03:35 Calm 0.80 Fog OVC002 19.6 18.1 91% 75.9 0.0
05 03:15 Calm 1.61 Fog/Mist VV007 20 18.5 91% 75.9 0.0
05 02:55 Calm 16.09 Fair CLR 21.3 19.7 91% 75.92 0.0
05 02:35 Calm 16.09 Fair CLR 21.2 19.7 91% 75.92 0.0
05 02:15 Calm 16.09 Fair CLR 21.5 20 91% 75.95 0.0
05 01:55 SW 7 16.09 Fair CLR 21.5 20 23.9 20.2 91% 75.97 0.0
05 01:35 SW 6 4.83 Fog/Mist SCT001 20.6 19.1 91% 76 0.0
05 01:15 Calm 2.01 Fog/Mist VV007 20.4 18.9 91% 76 0.0
05 00:55 Calm 11.27 Fair CLR 21.3 19.8 91% 76 0.0
05 00:35 Calm 2.41 Fog/Mist SCT001 21.1 19.6 91% 76.02 0.0
05 00:15 Calm 2.01 Fog/Mist VV007 21 19.4 91% 76.05 0.0
04 23:55 Calm 6.44 Fog/Mist CLR 21.3 19.8 91% 76.05 0.0
04 23:35 Calm 11.27 Fair CLR 21.3 19.8 91% 76.05 0.0
04 23:15 Calm 4.83 Fog/Mist CLR 21.7 20.2 91% 76.05 0.0
04 22:55 Calm 16.09 Fair CLR 22.3 20.7 91% 76.02 0.0
04 22:35 Calm 16.09 Fair CLR 22.5 20.9 91% 76.05 0.0
04 22:15 Calm 16.09 Fair CLR 22.6 21.1 91% 76.02 0.0
04 21:55 Calm 8.05 Fog/Mist CLR 22.2 20.6 91% 76 0.0
04 21:35 Calm 11.27 Fair CLR 22.4 20.8 91% 76 0.0
04 21:15 Calm 16.09 Fair CLR 22.6 21 91% 75.95 0.0
04 20:55 Calm 16.09 Fair CLR 23.2 21.7 91% 75.95 0.0
04 20:35 SW 6 16.09 Fair CLR 23.7 22.1 91% 75.95 0.0
04 20:15 SW 7 16.09 Fair CLR 23.6 22 91% 75.95 0.0
04 19:55 Calm 16.09 Fair CLR 24 22.3 34.1 24 90% 24 75.95 0.0 0.03
04 19:35 SW 6 16.09 Fair CLR 24 22.4 91% 24 76 0.0
04 19:15 SW 6 16.09 Fair CLR 24.1 22.5 91% 24 75.95 0.0
04 18:55 W 6 16.09 Fair CLR 24.1 22.5 91% 24 75.97 0.0
04 18:35 Calm 16.09 Fair CLR 24 22.5 91% 23 75.95 0.0
04 18:15 Calm 16.09 Fair CLR 24.1 22.1 89% 24 75.95 0.0
04 17:55 Calm 16.09 Fair CLR 24.2 21.9 87% 24 76 0.0
04 17:35 SW 11 16.09 Fair CLR 24.4 22.7 90% 24 76.07 0.0
04 17:15 Calm 16.09 Thunderstorm in Vicinity CLR 24.3 22.7 91% 24 76.05 0.0
04 16:55 NW 6 4.02 Fog/Mist CLR 24.6 22.4 88% 25 76 0.0 0.03 0.03
04 16:35 E 7 6.44 Thunderstorm Light Rain in Vicinity CLR 24.8 21.1 80% 26 76 0.0 0.03
04 16:15 W 26 G 46 16.09 Thunderstorm Light Rain SCT005 SCT017 SCT024 26.8 18.9 62% 28 76.07 0.0 0.03
04 15:55 W 6 16.09 Light Rain CLR 28.3 25.7 86% 34 76 0.0
04 15:35 Calm 16.09 Fair CLR 31 22.6 61% 35 76 0.0
04 15:15 Calm 16.09 Fair CLR 31 24.1 67% 37 76 0.0
04 14:55 Calm 16.09 Fair CLR 32.9 21.3 50% 36 76 0.0
04 14:35 Calm 16.09 Fair CLR 34.1 19.8 43% 36 76.02 0.0
04 14:15 W 6 16.09 Fair CLR 33.9 20.5 45% 37 76.05 0.0
04 13:55 SW 6 16.09 Fair CLR 33.9 20.3 33.9 22.5 45% 37 76.05 0.0
04 13:35 NW 7 16.09 Fair CLR 33.3 19.8 45% 35 76.07 0.0
04 13:15 Calm 8.05 Fair with Haze CLR 33.1 19.4 44% 35 76.1 0.0
04 12:55 N 7 16.09 Fair CLR 32.6 19.8 47% 35 76.1 0.0
04 12:35 N 6 16.09 Fair CLR 32 19.7 48% 34 76.12 0.0
04 11:35 NE 9 16.09 Fair CLR 31.1 20.5 53% 33 76.15 0.0
04 11:15 N 7 16.09 Fair CLR 30.5 20.8 56% 33 76.15 0.0
04 10:55 NE 6 16.09 Fair CLR 29.6 21.5 62% 32 76.15 0.0
04 10:35 N 7 16.09 Fair CLR 29 21.4 64% 32 76.15 0.0
04 10:15 NE 7 16.09 Fair CLR 28 21.7 69% 30 76.15 0.0
04 09:55 NE 6 16.09 Fair CLR 27.5 20.9 67% 29 76.15 0.0
04 09:35 N 6 16.09 Fair CLR 27 21.8 73% 29 76.15 0.0
04 09:15 Calm 16.09 Fair CLR 25.6 21.5 78% 27 76.15 0.0
04 08:55 Calm 16.09 Fair CLR 24.5 21.5 83% 25 76.17 0.0
04 08:35 Calm 16.09 Fair CLR 23.5 21.3 88% 76.17 0.0
04 08:15 Calm 16.09 Fair CLR 22.8 21.3 91% 76.15 0.0
04 07:55 NE 11 16.09 Fair CLR 22.5 20.8 22.5 20.2 90% 76.15 0.0 0.03
04 07:35 Calm 16.09 Fair CLR 22.1 20.5 91% 76.12 0.0
04 07:15 Calm 16.09 Fair CLR 21.5 20 91% 76.12 0.0
04 06:55 Calm 16.09 Fair CLR 21.3 19.7 91% 76.1 0.0
04 06:35 SW 6 16.09 Fair CLR 21.3 19.7 91% 76.07 0.0
04 06:15 Calm 16.09 Partly Cloudy SCT001 21.2 19.7 91% 76.07 0.0
04 05:55 Calm 2.82 Fog/Mist SCT001 20.3 18.8 91% 76.07 0.0 0.03
04 05:35 Calm 4.02 Fog/Mist SCT001 20.5 19 91% 76.05 0.0
04 05:15 Calm 4.83 Fog/Mist CLR 20.7 19.2 91% 76.05 0.0
04 04:55 Calm 8.05 Fog/Mist CLR 21 19.5 91% 76.07 0.0
04 04:35 Calm 6.44 Fog/Mist SCT001 21.1 19.6 91% 76.07 0.0
04 04:15 Calm 4.83 Fog/Mist SCT001 21.1 19.6 91% 76.05 0.0
04 03:55 Calm 8.05 Fog/Mist CLR 21.1 19.6 91% 76.07 0.0
04 03:35 Calm 8.05 Fog/Mist CLR 21.2 19.7 91% 76.07 0.0
04 03:15 Calm 11.27 Fair CLR 21.1 19.6 91% 76.05 0.0
04 02:55 Calm 16.09 Fair CLR 21.5 20 91% 76.05 0.0
04 02:35 Calm 16.09 Fair CLR 21.7 20.1 91% 76.02 0.0
04 02:15 Calm 16.09 Fair CLR 22 20.5 91% 76.02 0.0
04 01:55 S 7 16.09 Light Rain CLR 22 20.5 27 22 91% 76 0.0 0.08 0.3
04 01:35 S 6 16.09 Light Rain SCT026 SCT038 SCT050 22.1 20.6 91% 76.02 0.0 0.08
04 01:15 SE 7 16.09 Rain SCT023 SCT037 SCT048 22.7 21.1 91% 76.15 0.0 0.03
04 00:55 N 7 16.09 Thunderstorm in Vicinity CLR 23.8 19.6 77% 76.2 0.0 0.13
04 00:35 NW 15 G 26 16.09 Thunderstorm in Vicinity SCT003 SCT016 SCT028 23.6 20.1 81% 76.23 0.0 0.13
04 00:15 N 31 G 41 16.09 Thunderstorm Rain in Vicinity SCT003 SCT009 SCT015 24.1 19.3 75% 25 76.25 0.0
03 23:55 N 35 G 54 11.27 Fair and Breezy CLR 25.1 23.5 91% 26 76.25 0.0
03 23:35 Calm 6.44 Fog/Mist SCT001 26.1 24.5 91% 28 76.12 0.0
03 23:15 Calm 3.22 Fog/Mist SCT001 26.3 24.7 91% 29 76.12 0.0
03 22:55 Calm 16.09 Thunderstorm SCT012 SCT038 SCT070 26.8 25.2 91% 30 76.07 0.0 0.1 0.1
03 22:35 S 7 4.83 Heavy Rain SCT038 SCT070 SCT080 26.1 24.5 91% 28 76.1 0.0 0.1
03 22:15 Calm 16.09 Fair CLR 25.3 23.7 91% 26 76.12 0.0
03 21:55 Calm 11.27 Fair CLR 25.5 24 91% 27 76.12 0.0
03 21:35 Calm 11.27 Fair CLR 25.5 24 91% 27 76.1 0.0
03 21:15 Calm 8.05 Fog/Mist CLR 25.7 24.1 91% 27 76.1 0.0
03 20:55 Calm 11.27 Fair CLR 25.9 24.3 91% 28 76.12 0.0
03 20:35 Calm 11.27 Fair CLR 26.2 24.5 90% 29 76.12 0.0
03 20:15 Calm 16.09 Fair CLR 26.5 25 92% 29 76.15 0.0
03 19:55 Calm 16.09 Fair CLR 27 25.5 32.3 27 92% 31 76.15 0.0
03 19:35 Calm 16.09 Fair CLR 27.7 25.8 89% 33 76.1 0.0
03 19:15 Calm 16.09 Fair CLR 29.4 24.4 75% 35 76.1 0.0
03 18:55 Calm 16.09 Fair CLR 30.6 23.7 67% 36 76.1 0.0
03 18:35 Calm 16.09 Fair CLR 30.5 23.6 67% 35 76.07 0.0
03 18:15 SW 7 16.09 Fair CLR 30.6 23.4 65% 35 76.07 0.0
03 17:55 SW 7 16.09 Fair CLR 32.1 23.3 60% 37 76.07 0.0
03 17:35 SW 9 16.09 Fair CLR 32.1 23 59% 37 76.07 0.0
03 17:15 SW 15 16.09 Fair CLR 32.1 22.9 58% 37 76.1 0.0
03 16:55 SW 13 16.09 Fair CLR 31.9 22.8 59% 36 76.1 0.0
03 16:35 S 13 16.09 Fair CLR 31.7 23.2 61% 37 76.12 0.0
03 16:15 S 7 16.09 Fair CLR 32.3 23.2 59% 37 76.15 0.0
03 15:55 S 6 16.09 Fair CLR 32 23 59% 37 76.17 0.0
03 15:35 S 6 16.09 Fair CLR 31.4 23.4 63% 36 76.2 0.0
03 15:15 S 7 16.09 Fair CLR 30.8 23.7 66% 36 76.23 0.0
03 14:55 S 11 16.09 Fair CLR 30.2 23.8 69% 35 76.25 0.0
03 14:35 Calm 16.09 Fair CLR 29.3 23.4 71% 34 76.25 0.0
03 14:15 S 6 16.09 Fair CLR 29.3 23.2 70% 33 76.25 0.0
03 13:55 Calm 16.09 Fair CLR 29.2 23.1 29.6 23 70% 33 76.25 0.0
03 13:35 Calm 16.09 Fair CLR 28.7 22.6 70% 32 76.33 0.0
03 13:15 Calm 16.09 Fair CLR 28.8 22.9 70% 32 76.33 0.0
03 12:55 NW 6 16.09 Fair CLR 29.5 22.3 65% 33 76.35 0.0
03 12:35 NE 9 16.09 Fair CLR 28.6 23 72% 32 76.38 0.0
03 12:15 N 6 16.09 Fair CLR 28.1 22.5 72% 31 76.38 0.0
03 11:55 SE 6 16.09 Fair CLR 28.3 22.9 73% 32 76.38 0.0
03 11:35 Calm 16.09 Fair CLR 27.2 22 73% 30 76.38 0.0
03 11:15 Calm 16.09 Fair CLR 26.8 22.2 76% 29 76.38 0.0
03 10:55 Calm 16.09 Fair CLR 26.7 22.3 77% 29 76.4 0.0
03 10:35 Calm 16.09 Fair CLR 25.7 22.9 85% 27 76.35 0.0
03 10:15 E 6 16.09 Fair CLR 25.1 23 88% 26 76.35 0.0
03 09:55 SE 6 16.09 Fair CLR 24.2 22.6 91% 24 76.35 0.0
03 09:35 N 7 16.09 Partly Cloudy SCT005 23.9 22.3 91% 23 76.38 0.0
03 09:15 NE 7 11.27 Partly Cloudy SCT005 23.6 22 91% 76.4 0.0
03 08:55 NE 9 8.05 Fog/Mist BKN003 23.4 21.8 91% 76.43 0.0
03 08:35 N 11 4.83 Fog/Mist OVC003 23.4 21.9 91% 76.43 0.0
03 08:15 NE 7 6.44 Fog/Mist OVC003 23.2 21.7 91% 76.43 0.0
03 07:55 N 11 3.22 Fog/Mist OVC003 23 21.4 23 21 91% 76.43 0.0
03 07:35 N 13 0.40 Fog OVC003 22.9 21.4 91% 76.38 0.0
03 07:15 Calm 0.24 Fog OVC003 22.6 21.1 91% 76.33 0.0
03 06:55 Calm 0.24 Fog OVC003 22.5 20.9 91% 76.3 0.0
03 06:35 Calm 0.40 Fog OVC003 22.4 20.8 91% 76.28 0.0
03 06:15 Calm 0.40 Fog OVC003 22.3 20.8 91% 76.28 0.0
03 05:55 Calm 0.40 Fog OVC003 22.5 21 91% 76.28 0.0
03 05:35 Calm 1.21 Fog/Mist OVC003 22.5 21 91% 76.28 0.0
03 05:15 Calm 3.22 Fog/Mist OVC003 22.5 20.9 91% 76.28 0.0
03 04:55 Calm 2.41 Fog/Mist OVC003 22.5 20.8 90% 76.28 0.0
03 04:35 Calm 11.27 Overcast OVC003 22.2 20.7 91% 76.28 0.0
03 04:15 Calm 8.05 Fog/Mist BKN003 21.3 19.8 91% 76.28 0.0
03 03:55 Calm 8.05 Fog/Mist CLR 21.5 20 91% 76.28 0.0
03 03:35 Calm 2.41 Fog/Mist VV007 21.5 19.9 91% 76.25 0.0
03 03:15 Calm 4.02 Fog/Mist CLR 21.8 20.3 91% 76.25 0.0
03 02:55 Calm 4.83 Fog/Mist CLR 21.9 20.3 91% 76.25 0.0
03 02:35 Calm 16.09 Fair CLR 22.5 21 91% 76.28 0.0
03 02:15 Calm 16.09 Fair CLR 22 20.5 91% 76.28 0.0
Date Time (edt) Wind (kph) Vis. (km) Weather Sky Cond. Air Dwpt Max. Min. Relative Humidity Wind Chill (°C) Heat Index (°C) altimeter (cm) sea level (mb) 1 hr 3 hr 6 hr
6 hour
Temperature (ºC) Pressure Precipitation (cm)